Time;durP1;ratioP1;P1;durP2;ratioP2;P2;SDS_P1;SDS_P2;PMS_P1;PMS_P2;Temp;Humidity;BMP_temperature;BMP_pressure;BME280_temperature;BME280_humidity;BME280_pressure;Samples;Min_cycle;Max_cycle;Signal;HPM_P1;HPM_P2
2023/01/04 00:00:19;;;;;;;1999.90;999.90;;;;;;;4.50;100.00;95217.19;5116721;28;20172;-62
2023/01/04 00:02:44;;;;;;;1999.90;999.90;;;;;;;4.45;100.00;95212.13;5116921;28;20256;-60
2023/01/04 00:05:10;;;;;;;1999.90;999.90;;;;;;;4.42;100.00;95218.28;5115880;28;20256;-60
2023/01/04 00:07:35;;;;;;;1999.90;999.90;;;;;;;4.41;100.00;95216.72;5116404;28;20175;-60
2023/01/04 00:10:00;;;;;;;1999.90;999.90;;;;;;;4.34;100.00;95213.94;5115706;28;20282;-60
2023/01/04 00:12:25;;;;;;;1999.90;999.90;;;;;;;4.36;100.00;95214.31;5116185;28;20255;-60
2023/01/04 00:14:51;;;;;;;1999.90;999.90;;;;;;;4.34;100.00;95208.53;5115939;28;20237;-60
2023/01/04 00:17:16;;;;;;;1999.90;999.90;;;;;;;4.38;100.00;95206.63;5116571;28;20168;-63
2023/01/04 00:19:42;;;;;;;1999.90;999.90;;;;;;;4.32;100.00;95208.09;5115975;28;20172;-61
2023/01/04 00:22:07;;;;;;;1999.90;999.90;;;;;;;4.24;100.00;95209.16;5115876;28;20262;-61
2023/01/04 00:24:32;;;;;;;1999.90;999.90;;;;;;;4.20;100.00;95219.16;5115838;28;20172;-61
2023/01/04 00:26:58;;;;;;;1999.90;999.90;;;;;;;4.22;100.00;95222.28;5115432;28;20164;-61
2023/01/04 00:29:23;;;;;;;1999.90;999.90;;;;;;;4.20;100.00;95224.56;5115492;28;20221;-61
2023/01/04 00:31:48;;;;;;;1999.90;999.90;;;;;;;4.20;100.00;95214.53;5114789;28;20176;-61
2023/01/04 00:34:16;;;;;;;1999.90;999.90;;;;;;;4.16;100.00;95216.41;5116084;28;20169;-59
2023/01/04 00:36:42;;;;;;;1999.90;999.90;;;;;;;4.17;100.00;95209.06;5115944;28;20168;-59
2023/01/04 00:39:13;;;;;;;1999.90;999.90;;;;;;;4.14;100.00;95209.78;5115981;28;20190;-61
2023/01/04 00:41:43;;;;;;;1999.90;999.90;;;;;;;4.19;100.00;95206.78;5115809;28;20175;-61
2023/01/04 00:44:10;;;;;;;1999.90;999.90;;;;;;;4.22;100.00;95206.81;5115419;28;20279;-61
2023/01/04 00:46:36;;;;;;;1999.90;999.90;;;;;;;4.22;100.00;95201.41;5115288;28;20168;-61
2023/01/04 00:49:03;;;;;;;1999.90;999.90;;;;;;;4.16;100.00;95188.63;5114890;28;20333;-61
2023/01/04 00:51:29;;;;;;;1999.90;999.90;;;;;;;4.17;100.00;95187.47;5115158;28;20187;-61
2023/01/04 00:53:55;;;;;;;1999.90;999.90;;;;;;;4.09;100.00;95180.41;5115112;28;20191;-59
2023/01/04 00:56:21;;;;;;;1999.90;999.90;;;;;;;3.98;100.00;95190.31;5115139;28;20168;-62
2023/01/04 00:58:46;;;;;;;1999.90;999.90;;;;;;;3.97;100.00;95180.66;5115003;28;20310;-62
2023/01/04 01:01:11;;;;;;;1999.90;999.90;;;;;;;3.98;100.00;95185.69;5115110;28;20204;-61
2023/01/04 01:03:37;;;;;;;1999.90;999.90;;;;;;;3.91;100.00;95184.81;5114667;28;20179;-62
2023/01/04 01:06:07;;;;;;;1999.90;999.90;;;;;;;3.85;100.00;95170.84;5115407;28;20176;-62
2023/01/04 01:08:33;;;;;;;1999.90;999.90;;;;;;;3.80;100.00;95178.47;5114930;28;20233;-62
2023/01/04 01:11:07;;;;;;;1999.90;999.90;;;;;;;3.75;100.00;95186.91;5114984;28;20231;-62
2023/01/04 01:13:33;;;;;;;1999.90;999.90;;;;;;;3.74;100.00;95180.72;5114948;28;20223;-64
2023/01/04 01:16:07;;;;;;;1999.90;999.90;;;;;;;3.65;100.00;95193.72;5114928;28;20199;-60
2023/01/04 01:18:34;;;;;;;1999.90;999.90;;;;;;;3.64;100.00;95188.69;5115405;28;20210;-60
2023/01/04 01:20:59;;;;;;;1999.90;999.90;;;;;;;3.60;100.00;95195.94;5114509;28;20175;-60
2023/01/04 01:23:25;;;;;;;1999.90;999.90;;;;;;;3.51;100.00;95191.56;5114647;28;20175;-60
2023/01/04 01:25:50;;;;;;;1999.90;999.90;;;;;;;3.44;100.00;95204.97;5115198;28;20207;-60
2023/01/04 01:28:16;;;;;;;1999.90;999.90;;;;;;;3.42;100.00;95201.84;5115078;28;20172;-59
2023/01/04 01:30:41;;;;;;;1999.90;999.90;;;;;;;3.37;100.00;95215.66;5114166;28;20200;-63
2023/01/04 01:33:08;;;;;;;1999.90;999.90;;;;;;;3.37;100.00;95215.66;5115217;28;20257;-61
2023/01/04 01:35:34;;;;;;;1999.90;999.90;;;;;;;3.37;100.00;95217.56;5114436;28;20178;-61
2023/01/04 01:37:59;;;;;;;1999.90;999.90;;;;;;;3.31;100.00;95227.09;5114364;28;20180;-61
2023/01/04 01:40:25;;;;;;;1999.90;999.90;;;;;;;3.25;100.00;95233.94;5114838;28;20198;-61
2023/01/04 01:42:50;;;;;;;1999.90;999.90;;;;;;;3.17;100.00;95248.47;5113620;28;20210;-61
2023/01/04 01:45:33;;;;;;;1999.90;999.90;;;;;;;3.08;100.00;95259.47;5114838;28;20291;-61
2023/01/04 01:48:04;;;;;;;1999.90;999.90;;;;;;;3.15;100.00;95265.00;5114859;28;20175;-62
2023/01/04 01:50:33;;;;;;;1999.90;999.90;;;;;;;3.20;100.00;95261.19;5114419;28;20210;-61
2023/01/04 01:53:00;;;;;;;1999.90;999.90;;;;;;;3.19;100.00;95255.03;5114087;28;20184;-60
2023/01/04 01:55:29;;;;;;;1999.90;999.90;;;;;;;3.23;100.00;95255.88;5115015;28;20207;-60
2023/01/04 01:57:55;;;;;;;1999.90;999.90;;;;;;;3.26;100.00;95252.47;5114084;28;20175;-60
2023/01/04 02:00:21;;;;;;;1999.90;999.90;;;;;;;3.32;100.00;95250.25;5114271;28;20200;-60
2023/01/04 02:03:13;;;;;;;1999.90;999.90;;;;;;;3.27;100.00;95264.81;5114051;28;20183;-60
2023/01/04 02:05:40;;;;;;;1999.90;999.90;;;;;;;3.17;100.00;95270.03;5114434;28;20195;-60
2023/01/04 02:08:07;;;;;;;1999.90;999.90;;;;;;;3.11;100.00;95269.56;5113656;28;20211;-62
2023/01/04 02:10:32;;;;;;;1999.90;999.90;;;;;;;3.04;100.00;95288.31;5113666;28;20200;-70
2023/01/04 02:13:04;;;;;;;1999.90;999.90;;;;;;;3.04;100.00;95282.91;5114187;28;20176;-69
2023/01/04 02:15:37;;;;;;;1999.90;999.90;;;;;;;3.03;100.00;95275.94;5113930;28;20178;-72
2023/01/04 02:18:09;;;;;;;1999.90;999.90;;;;;;;3.01;100.00;95272.84;5113695;28;20206;-71
2023/01/04 02:20:54;;;;;;;1999.90;999.90;;;;;;;3.00;100.00;95281.28;5114221;28;20321;-71
2023/01/04 02:23:41;;;;;;;1999.90;999.90;;;;;;;3.06;100.00;95280.63;5114495;28;20217;-74
2023/01/04 02:26:16;;;;;;;1999.90;999.90;;;;;;;3.22;100.00;95273.22;5114598;28;20206;-61
2023/01/04 02:28:47;;;;;;;1999.90;999.90;;;;;;;3.39;100.00;95261.94;5113514;28;20182;-70
2023/01/04 02:31:47;;;;;;;1999.90;999.90;;;;;;;3.51;100.00;95240.13;5114441;28;20267;-71
2023/01/04 02:34:15;;;;;;;1999.90;999.90;;;;;;;3.56;100.00;95236.38;5113521;28;20168;-72
2023/01/04 02:36:54;;;;;;;1999.90;999.90;;;;;;;3.60;100.00;95233.75;5113786;28;20198;-68
2023/01/04 02:39:19;;;;;;;1999.90;999.90;;;;;;;3.58;100.00;95236.00;5114449;28;20182;-69
2023/01/04 02:41:50;;;;;;;1999.90;999.90;;;;;;;3.57;100.00;95226.34;5113820;28;20172;-68
2023/01/04 02:50:29;;;;;;;1999.90;999.90;;;;;;;3.54;100.00;95234.03;5115065;28;20233;-57
2023/01/04 02:50:30;;;;;;;1999.90;999.90;;;;;;;3.58;100.00;95217.91;5114970;28;20208;-56
2023/01/04 02:53:03;;;;;;;1999.90;999.90;;;;;;;3.60;100.00;95220.25;5114222;28;20172;-58
2023/01/04 02:55:58;;;;;;;1999.90;999.90;;;;;;;3.64;100.00;95218.38;5115857;28;20180;-58
2023/01/04 02:58:45;;;;;;;1999.90;999.90;;;;;;;3.67;100.00;95207.63;5117711;28;20168;-58
2023/01/04 03:07:17;;;;;;;1999.90;999.90;;;;;;;3.79;100.00;95166.13;5118729;28;20167;-61
2023/01/04 03:09:48;;;;;;;1999.90;999.90;;;;;;;3.78;100.00;95167.28;5117012;28;20203;-62
2023/01/04 03:12:31;;;;;;;1999.90;999.90;;;;;;;3.78;100.00;95159.19;5117816;28;20164;-61
2023/01/04 03:15:08;;;;;;;1999.90;999.90;;;;;;;3.78;100.00;95164.59;5116760;28;20223;-61
2023/01/04 03:17:41;;;;;;;1999.90;999.90;;;;;;;3.78;100.00;95153.78;5117458;27;20175;-61
2023/01/04 03:20:10;;;;;;;1999.90;999.90;;;;;;;3.78;100.00;95161.88;5117294;28;20173;-61
2023/01/04 03:37:12;;;;;;;1999.90;999.90;;;;;;;3.65;100.00;95160.53;5118085;28;20178;-66
2023/01/04 03:48:26;;;;;;;1999.90;999.90;;;;;;;3.68;100.00;95144.38;5117752;28;20164;-66
2023/01/04 03:50:56;;;;;;;1999.90;999.90;;;;;;;3.70;100.00;95130.50;5116222;28;20253;-66
2023/01/04 03:53:23;;;;;;;1999.90;999.90;;;;;;;3.72;100.00;95139.03;5116247;28;20171;-67
2023/01/04 03:55:50;;;;;;;1999.90;999.90;;;;;;;3.72;100.00;95139.03;5116515;28;20181;-66
2023/01/04 03:58:18;;;;;;;1999.90;999.90;;;;;;;3.73;100.00;95129.78;5116372;28;20187;-70
2023/01/04 04:00:45;;;;;;;1999.90;999.90;;;;;;;3.71;100.00;95124.00;5116775;28;20233;-58
2023/01/04 04:03:10;;;;;;;1999.90;999.90;;;;;;;3.73;100.00;95118.97;5116047;28;20263;-58
2023/01/04 04:08:27;;;;;;;1999.90;999.90;;;;;;;3.73;100.00;95108.19;5117620;28;20228;-59
2023/01/04 04:10:55;;;;;;;1999.90;999.90;;;;;;;3.67;100.00;95101.56;5116002;28;20238;-59
2023/01/04 04:13:22;;;;;;;1999.90;999.90;;;;;;;3.63;100.00;95109.59;5115647;28;20303;-59
2023/01/04 04:15:47;;;;;;;1999.90;999.90;;;;;;;3.58;100.00;95103.75;5115790;28;20181;-70
2023/01/04 04:18:13;;;;;;;1999.90;999.90;;;;;;;3.53;100.00;95109.47;5115903;28;20172;-59
2023/01/04 04:20:38;;;;;;;1999.90;999.90;;;;;;;3.46;100.00;95096.63;5115932;28;20181;-61
2023/01/04 04:23:04;;;;;;;1999.90;999.90;;;;;;;3.40;100.00;95106.22;5115954;28;20213;-62
2023/01/04 04:25:29;;;;;;;1999.90;999.90;;;;;;;3.32;100.00;95110.72;5115954;28;20168;-62
2023/01/04 04:27:55;;;;;;;1999.90;999.90;;;;;;;3.23;100.00;95107.50;5115269;28;20172;-62
2023/01/04 04:30:20;;;;;;;1999.90;999.90;;;;;;;3.17;100.00;95116.28;5115737;28;20656;-63
2023/01/04 04:32:46;;;;;;;1999.90;999.90;;;;;;;3.09;100.00;95123.47;5115533;28;20176;-62
2023/01/04 04:35:11;;;;;;;1999.90;999.90;;;;;;;3.03;100.00;95127.63;5116613;28;20249;-60
2023/01/04 04:37:36;;;;;;;1999.90;999.90;;;;;;;2.97;100.00;95121.00;5116169;28;20168;-71
2023/01/04 04:40:04;;;;;;;1999.90;999.90;;;;;;;2.91;100.00;95132.41;5115486;28;20211;-71
2023/01/04 04:42:29;;;;;;;1999.90;999.90;;;;;;;2.86;100.00;95124.63;5115835;28;20179;-70
2023/01/04 04:44:54;;;;;;;1999.90;999.90;;;;;;;2.81;100.00;95125.72;5115938;28;20183;-71
2023/01/04 04:47:20;;;;;;;1999.90;999.90;;;;;;;2.77;100.00;95116.03;5115743;28;20172;-70
2023/01/04 04:49:45;;;;;;;1999.90;999.90;;;;;;;2.72;100.00;95117.09;5114677;28;20204;-71
2023/01/04 04:52:10;;;;;;;1999.90;999.90;;;;;;;2.70;100.00;95119.38;5115541;28;20228;-63
2023/01/04 04:54:36;;;;;;;1999.90;999.90;;;;;;;2.69;100.00;95114.34;5114954;28;20176;-63
2023/01/04 04:57:01;;;;;;;1999.90;999.90;;;;;;;2.63;100.00;95119.25;5115612;28;20263;-60
2023/01/04 04:59:27;;;;;;;1999.90;999.90;;;;;;;2.61;100.00;95115.34;5114962;28;20207;-60
2023/01/04 05:01:52;;;;;;;1999.90;999.90;;;;;;;2.61;100.00;95105.38;5115073;28;20172;-60
2023/01/04 05:04:18;;;;;;;1999.90;999.90;;;;;;;2.61;100.00;95102.66;5115136;28;20246;-59
2023/01/04 05:06:48;;;;;;;1999.90;999.90;;;;;;;2.63;100.00;95099.63;5114694;28;20207;-59
2023/01/04 05:09:14;;;;;;;1999.90;999.90;;;;;;;2.64;100.00;95101.97;5115020;28;20191;-60
2023/01/04 05:14:25;;;;;;;1999.90;999.90;;;;;;;2.62;100.00;95108.84;5115661;28;20235;-60
2023/01/04 05:16:51;;;;;;;1999.90;999.90;;;;;;;2.59;100.00;95104.94;5115387;28;20180;-60
2023/01/04 05:19:16;;;;;;;1999.90;999.90;;;;;;;2.56;100.00;95102.97;5114648;28;20183;-60
2023/01/04 05:21:41;;;;;;;1999.90;999.90;;;;;;;2.56;100.00;95100.28;5114859;28;20185;-60
2023/01/04 05:24:09;;;;;;;1999.90;999.90;;;;;;;2.57;100.00;95090.25;5114774;28;20176;-60
2023/01/04 05:26:35;;;;;;;1999.90;999.90;;;;;;;2.58;100.00;95103.38;5115002;28;20273;-60
2023/01/04 05:29:00;;;;;;;1999.90;999.90;;;;;;;2.58;100.00;95098.00;5114606;28;20184;-57
2023/01/04 05:31:25;;;;;;;1999.90;999.90;;;;;;;2.62;100.00;95093.44;5114306;28;20175;-63
2023/01/04 05:33:51;;;;;;;1999.90;999.90;;;;;;;2.63;100.00;95084.22;5114100;28;20197;-62
2023/01/04 05:36:16;;;;;;;1999.90;999.90;;;;;;;2.65;100.00;95086.53;5114297;28;20199;-62
2023/01/04 05:38:41;;;;;;;1999.90;999.90;;;;;;;2.69;100.00;95076.59;5114331;28;20180;-61
2023/01/04 05:42:23;;;;;;;1999.90;999.90;;;;;;;2.72;100.00;95076.69;5114574;28;20206;-62
2023/01/04 05:43:52;;;;;;;1999.90;999.90;;;;;;;2.71;100.00;95085.91;5115415;28;20156;-62
2023/01/04 05:46:18;;;;;;;1999.90;999.90;;;;;;;2.71;100.00;95085.91;5114281;28;20229;-62
2023/01/04 05:48:43;;;;;;;1999.90;999.90;;;;;;;2.73;100.00;95083.63;5114314;28;20222;-61
2023/01/04 05:51:08;;;;;;;1999.90;999.90;;;;;;;2.71;100.00;95087.81;5114126;28;20226;-61
2023/01/04 05:53:34;;;;;;;1999.90;999.90;;;;;;;2.70;100.00;95086.25;5114022;28;20176;-62
2023/01/04 05:55:59;;;;;;;1999.90;999.90;;;;;;;2.71;100.00;95085.91;5114292;28;20175;-61
2023/01/04 05:58:24;;;;;;;1999.90;999.90;;;;;;;2.75;100.00;95084.03;5114234;28;20176;-61
2023/01/04 06:00:50;;;;;;;1999.90;999.90;;;;;;;2.71;100.00;95079.72;5114707;28;20176;-61
2023/01/04 06:03:15;;;;;;;1999.90;999.90;;;;;;;2.77;100.00;95078.28;5114613;28;20180;-61
2023/01/04 06:05:40;;;;;;;1999.90;999.90;;;;;;;2.81;100.00;95074.50;5113532;28;20188;-63
2023/01/04 06:08:06;;;;;;;1999.90;999.90;;;;;;;2.84;100.00;95084.56;5114202;28;20171;-62
2023/01/04 06:10:32;;;;;;;1999.90;999.90;;;;;;;2.89;100.00;95086.97;5113926;28;20249;-64
2023/01/04 06:12:57;;;;;;;1999.90;999.90;;;;;;;2.96;100.00;95089.75;5114521;28;20172;-64
2023/01/04 06:15:23;;;;;;;1999.90;999.90;;;;;;;3.02;100.00;95080.22;5114434;28;20198;-65
2023/01/04 06:17:48;;;;;;;1999.90;999.90;;;;;;;3.07;100.00;95085.28;5114521;28;20178;-63
2023/01/04 06:20:13;;;;;;;1999.90;999.90;;;;;;;3.12;100.00;95084.22;5113534;28;20172;-64
2023/01/04 06:22:40;;;;;;;1999.90;999.90;;;;;;;3.20;100.00;95081.25;5113802;28;20172;-65
2023/01/04 06:25:07;;;;;;;1999.90;999.90;;;;;;;3.28;100.00;95072.13;5114373;28;20168;-62
2023/01/04 06:27:32;;;;;;;1999.90;999.90;;;;;;;3.38;100.00;95076.91;5114871;28;20164;-74
2023/01/04 06:29:58;;;;;;;1999.90;999.90;;;;;;;3.47;100.00;95066.59;5115132;28;20214;-75
2023/01/04 06:32:23;;;;;;;1999.90;999.90;;;;;;;3.53;100.00;95058.94;5118311;28;20207;-75
2023/01/04 06:34:48;;;;;;;1999.90;999.90;;;;;;;3.61;100.00;95062.53;5117419;28;20191;-70
2023/01/04 06:37:14;;;;;;;1999.90;999.90;;;;;;;3.67;100.00;95066.47;5118234;28;20172;-72
2023/01/04 06:39:39;;;;;;;1999.90;999.90;;;;;;;3.76;100.00;95053.47;5117547;28;20180;-73
2023/01/04 06:42:05;;;;;;;1999.90;999.90;;;;;;;3.82;100.00;95046.59;5117635;28;20194;-72
2023/01/04 06:44:30;;;;;;;1999.90;999.90;;;;;;;3.89;100.00;95038.59;5117379;28;20183;-63
2023/01/04 06:46:55;;;;;;;1999.90;999.90;;;;;;;3.90;100.00;95030.13;5117631;28;20172;-64
2023/01/04 06:49:21;;;;;;;1999.90;999.90;;;;;;;3.92;100.00;95021.63;5118284;28;20206;-62
2023/01/04 06:51:46;;;;;;;1999.90;999.90;;;;;;;3.92;100.00;95024.31;5118054;28;20168;-62
2023/01/04 06:54:12;;;;;;;1999.90;999.90;;;;;;;3.90;100.00;95026.63;5117329;28;20173;-62
2023/01/04 06:56:38;;;;;;;1999.90;999.90;;;;;;;3.88;100.00;95034.31;5117633;28;20200;-63
2023/01/04 06:59:04;;;;;;;1999.90;999.90;;;;;;;3.81;100.00;95039.63;5117382;28;20172;-64
2023/01/04 07:01:29;;;;;;;1999.90;999.90;;;;;;;3.71;100.00;95043.00;5117241;28;20176;-61
2023/01/04 07:03:55;;;;;;;1999.90;999.90;;;;;;;3.65;100.00;95047.16;5117231;28;20234;-62
2023/01/04 07:06:20;;;;;;;1999.90;999.90;;;;;;;3.64;100.00;95045.59;5117170;28;20210;-62
2023/01/04 07:08:45;;;;;;;1999.90;999.90;;;;;;;3.58;100.00;95062.09;5118173;28;20288;-61
2023/01/04 07:11:11;;;;;;;1999.90;999.90;;;;;;;3.61;100.00;95057.13;5117025;28;20236;-61
2023/01/04 07:13:36;;;;;;;1999.90;999.90;;;;;;;3.96;100.00;95041.38;5116650;28;20220;-61
2023/01/04 07:16:01;;;;;;;1999.90;999.90;;;;;;;4.42;100.00;95029.06;5117523;28;20176;-60
2023/01/04 07:18:27;;;;;;;1999.90;999.90;;;;;;;4.77;100.00;95027.44;5116626;27;20168;-61
2023/01/04 07:20:52;;;;;;;1999.90;999.90;;;;;;;5.12;100.00;95037.72;5116629;28;20184;-72
2023/01/04 07:23:17;;;;;;;1999.90;999.90;;;;;;;5.47;100.00;95049.53;5117644;28;20176;-59
2023/01/04 07:25:43;;;;;;;1999.90;999.90;;;;;;;5.88;100.00;95063.72;5117613;28;20164;-60
2023/01/04 07:28:08;;;;;;;1999.90;999.90;;;;;;;6.20;100.00;95103.31;5116897;28;20175;-59
2023/01/04 07:30:34;;;;;;;1999.90;999.90;;;;;;;6.50;100.00;95166.19;5116577;28;20296;-59
2023/01/04 07:32:59;;;;;;;1999.90;999.90;;;;;;;6.86;100.00;95237.63;5116833;28;20222;-59
2023/01/04 07:35:25;;;;;;;1999.90;999.90;;;;;;;7.07;100.00;95330.00;5116573;28;20263;-59
2023/01/04 07:37:51;;;;;;;1999.90;999.90;;;;;;;7.38;100.00;95454.25;5116412;28;20186;-60
2023/01/04 07:40:16;;;;;;;1999.90;999.90;;;;;;;7.68;100.00;95587.16;5116034;28;20174;-63
2023/01/04 07:42:42;;;;;;;1999.90;999.90;;;;;;;7.98;100.00;95780.78;5115440;28;20174;-63
2023/01/04 07:45:07;;;;;;;1999.90;999.90;;;;;;;8.29;100.00;95919.78;5116592;27;20176;-64
2023/01/04 07:47:33;;;;;;;1999.90;999.90;;;;;;;8.56;100.00;96054.53;5116587;28;20193;-63
2023/01/04 07:49:59;;;;;;;1999.90;999.90;;;;;;;8.78;100.00;96148.91;5116271;28;20291;-64
2023/01/04 07:52:24;;;;;;;1999.90;999.90;;;;;;;9.14;100.00;96186.25;5116997;28;20183;-64
2023/01/04 07:54:50;;;;;;;1999.90;999.90;;;;;;;9.46;100.00;96230.97;5116135;28;20176;-63
2023/01/04 07:57:15;;;;;;;1999.90;999.90;;;;;;;9.71;100.00;96264.69;5116423;28;20220;-71
2023/01/04 07:59:40;;;;;;;1999.90;999.90;;;;;;;10.06;100.00;96297.00;5116214;28;20175;-61
2023/01/04 08:02:08;;;;;;;1999.90;999.90;;;;;;;10.22;100.00;96315.81;5116005;28;20179;-63
2023/01/04 08:04:34;;;;;;;1999.90;999.90;;;;;;;10.23;100.00;96325.59;5115648;28;20247;-63
2023/01/04 08:06:59;;;;;;;1999.90;999.90;;;;;;;10.56;100.00;96320.75;5116331;28;20183;-63
2023/01/04 08:09:24;;;;;;;1999.90;999.90;;;;;;;10.48;100.00;96329.31;5116194;28;20196;-63
2023/01/04 08:11:50;;;;;;;1999.90;999.90;;;;;;;10.41;100.00;96340.94;5116136;28;20179;-60
2023/01/04 08:14:15;;;;;;;1999.90;999.90;;;;;;;10.40;100.00;96341.31;5115429;28;20218;-63
2023/01/04 08:16:41;;;;;;;1999.90;999.90;;;;;;;10.66;100.00;96338.38;5115936;28;20240;-61
2023/01/04 08:19:14;;;;;;;1999.90;999.90;;;;;;;10.97;100.00;96335.88;5115931;28;20172;-57
2023/01/04 08:21:41;;;;;;;1999.90;999.90;;;;;;;11.27;100.00;96335.59;5116315;28;20168;-58
2023/01/04 08:24:06;;;;;;;1999.90;999.90;;;;;;;11.57;100.00;96336.91;5116150;28;20214;-58
2023/01/04 08:26:32;;;;;;;1999.90;999.90;;;;;;;12.08;100.00;96344.84;5116168;28;20212;-58
2023/01/04 08:28:57;;;;;;;1999.90;999.90;;;;;;;12.04;100.00;96344.88;5115972;28;20176;-59
2023/01/04 08:31:25;;;;;;;1999.90;999.90;;;;;;;12.21;100.00;96351.53;5115516;28;20274;-58
2023/01/04 08:33:52;;;;;;;1999.90;999.90;;;;;;;12.38;100.00;96342.53;5115548;28;20203;-62
2023/01/04 08:36:22;;;;;;;1999.90;999.90;;;;;;;12.54;100.00;96340.97;5115331;28;20198;-60
2023/01/04 08:38:49;;;;;;;1999.90;999.90;;;;;;;12.57;100.00;96342.94;5115451;28;20270;-59
2023/01/04 08:41:15;;;;;;;1999.90;999.90;;;;;;;12.75;100.00;96346.44;5115806;28;20197;-59
2023/01/04 08:43:40;;;;;;;1999.90;999.90;;;;;;;12.82;100.00;96340.19;5115595;28;20172;-57
2023/01/04 08:46:06;;;;;;;1999.90;999.90;;;;;;;12.42;100.00;96343.34;5115888;28;20168;-57
2023/01/04 08:48:33;;;;;;;1999.90;999.90;;;;;;;12.31;100.00;96348.81;5114855;28;20198;-58
2023/01/04 08:50:59;;;;;;;1999.90;999.90;;;;;;;12.72;100.00;96336.25;5115350;28;20253;-59
2023/01/04 08:53:24;;;;;;;1999.90;999.90;;;;;;;13.24;100.00;96340.09;5114504;28;20182;-72
2023/01/04 08:55:51;;;;;;;1999.90;999.90;;;;;;;13.78;100.00;96339.47;5115207;28;20180;-58
2023/01/04 08:58:16;;;;;;;1999.90;999.90;;;;;;;13.85;100.00;96346.91;5114767;28;20180;-58
2023/01/04 09:00:42;;;;;;;1999.90;999.90;;;;;;;14.38;100.00;96339.13;5115123;28;20179;-58
2023/01/04 09:03:07;;;;;;;1999.90;999.90;;;;;;;14.38;100.00;96339.13;5115201;28;20179;-58
2023/01/04 09:05:32;;;;;;;1999.90;999.90;;;;;;;13.95;100.00;96335.06;5114888;28;20213;-58
2023/01/04 09:08:01;;;;;;;1999.90;999.90;;;;;;;12.91;100.00;96343.28;5114565;28;20271;-60
2023/01/04 09:10:26;;;;;;;1999.90;999.90;;;;;;;12.31;100.00;96337.84;5114764;28;20212;-60
2023/01/04 09:12:52;;;;;;;1999.90;999.90;;;;;;;11.99;100.00;96331.53;5114629;28;20179;-60
2023/01/04 09:15:18;;;;;;;1999.90;999.90;;;;;;;12.09;100.00;96336.25;5115327;28;20200;-61
2023/01/04 09:17:44;;;;;;;1999.90;999.90;;;;;;;11.33;100.00;96334.09;5114772;28;20167;-60
2023/01/04 09:20:10;;;;;;;1999.90;999.90;;;;;;;10.82;100.00;96327.97;5114666;28;20190;-63
2023/01/04 09:22:35;;;;;;;1999.90;999.90;;;;;;;11.33;100.00;96325.88;5114683;28;20282;-63
2023/01/04 09:25:01;;;;;;;1999.90;999.90;;;;;;;11.17;100.00;96322.66;5115834;28;20256;-63
2023/01/04 09:27:26;;;;;;;1999.90;999.90;;;;;;;11.41;100.00;96322.78;5114303;28;20195;-64
2023/01/04 09:29:52;;;;;;;1999.90;999.90;;;;;;;11.90;100.00;96322.16;5114685;28;20285;-62
2023/01/04 09:32:32;;;;;;;1999.90;999.90;;;;;;;12.33;100.00;96315.53;5113050;27;20540;-61
2023/01/04 09:34:57;;;;;;;1999.90;999.90;;;;;;;12.48;100.00;96326.13;5111631;28;20191;-61
2023/01/04 09:37:23;;;;;;;1999.90;999.90;;;;;;;12.32;100.00;96322.97;5111179;28;20176;-61
2023/01/04 09:39:48;;;;;;;1999.90;999.90;;;;;;;12.87;100.00;96320.59;5111164;28;20176;-61
2023/01/04 09:42:21;;;;;;;1999.90;999.90;;;;;;;13.20;100.00;96322.88;5111291;28;20368;-61
2023/01/04 09:44:50;;;;;;;1999.90;999.90;;;;;;;13.27;100.00;96317.38;5111758;28;20203;-61
2023/01/04 09:47:29;;;;;;;1999.90;999.90;;;;;;;13.29;100.00;96315.00;5111395;28;20177;-61
2023/01/04 09:50:30;;;;;;;1999.90;999.90;;;;;;;13.50;100.00;96314.91;5111595;28;20176;-61
2023/01/04 09:53:05;;;;;;;1999.90;999.90;;;;;;;13.55;100.00;96316.47;5078919;28;20183;-61
2023/01/04 09:55:46;;;;;;;1999.90;999.90;;;;;;;12.91;100.00;96310.38;5110847;28;20197;-61
2023/01/04 09:58:41;;;;;;;1999.90;999.90;;;;;;;12.52;100.00;96320.63;5111278;28;20258;-61
2023/01/04 10:01:22;;;;;;;1999.90;999.90;;;;;;;11.70;100.00;96320.94;5109965;28;20192;-62
2023/01/04 10:04:09;;;;;;;1999.90;999.90;;;;;;;11.83;100.00;96316.66;5111421;28;20196;-61
2023/01/04 10:06:36;;;;;;;1999.90;999.90;;;;;;;11.59;100.00;96312.69;5111889;28;20217;-65
2023/01/04 10:09:08;;;;;;;1999.90;999.90;;;;;;;11.28;100.00;96310.63;5110527;28;20198;-60
2023/01/04 10:12:07;;;;;;;1999.90;999.90;;;;;;;11.14;100.00;96307.06;5111286;28;20192;-58
2023/01/04 10:14:32;;;;;;;1999.90;999.90;;;;;;;10.95;100.00;96304.59;5111157;28;20172;-59
2023/01/04 10:17:25;;;;;;;1999.90;999.90;;;;;;;10.76;100.00;96302.16;5111100;28;20225;-59
2023/01/04 10:20:28;;;;;;;1999.90;999.90;;;;;;;10.55;100.00;96291.09;5111010;28;20179;-60
2023/01/04 10:23:04;;;;;;;1999.90;999.90;;;;;;;10.53;100.00;96294.22;5110335;28;20224;-60
2023/01/04 10:25:44;;;;;;;1999.90;999.90;;;;;;;10.73;100.00;96286.53;5111060;28;20178;-61
2023/01/04 10:28:10;;;;;;;1999.90;999.90;;;;;;;10.77;100.00;96287.31;5111359;28;20170;-70
2023/01/04 10:31:02;;;;;;;1999.90;999.90;;;;;;;10.64;100.00;96278.69;5110474;28;20237;-68
2023/01/04 10:33:37;;;;;;;1999.90;999.90;;;;;;;10.82;100.00;96278.78;5105259;28;20187;-68
2023/01/04 10:36:15;;;;;;;1999.90;999.90;;;;;;;10.84;100.00;96265.50;5110132;28;20166;-69
2023/01/04 10:38:41;;;;;;;1999.90;999.90;;;;;;;11.20;100.00;96256.28;5110719;28;20175;-68
2023/01/04 10:41:12;;;;;;;1999.90;999.90;;;;;;;11.43;100.00;96254.00;5110560;28;20176;-69
2023/01/04 10:43:58;;;;;;;1999.90;999.90;;;;;;;11.65;100.00;96240.03;5098598;28;20186;-71
2023/01/04 10:46:42;;;;;;;1999.90;999.90;;;;;;;11.61;100.00;96238.44;5097049;28;20164;-62
2023/01/04 10:49:16;;;;;;;1999.90;999.90;;;;;;;11.61;100.00;96238.44;5096827;28;20176;-61
2023/01/04 10:51:56;;;;;;;1999.90;999.90;;;;;;;11.33;100.00;96247.34;5096882;28;20297;-61
2023/01/04 10:54:40;;;;;;;1999.90;999.90;;;;;;;11.17;100.00;96235.97;5096540;28;20187;-62
2023/01/04 10:57:38;;;;;;;1999.90;999.90;;;;;;;10.89;100.00;96235.88;5096285;28;20168;-62
2023/01/04 11:00:07;;;;;;;1999.90;999.90;;;;;;;10.76;100.00;96242.06;5096307;28;20208;-61
2023/01/04 11:02:41;;;;;;;1999.90;999.90;;;;;;;10.62;100.00;96231.06;5096216;28;20322;-67
2023/01/04 11:05:15;;;;;;;1999.90;999.90;;;;;;;10.62;100.00;96231.06;5096860;28;20193;-60
2023/01/04 11:08:09;;;;;;;1999.90;999.90;;;;;;;10.30;100.00;96224.66;5096820;28;20177;-60
2023/01/04 11:10:52;;;;;;;1999.90;999.90;;;;;;;10.23;100.00;96221.88;5096609;28;20195;-59
2023/01/04 11:13:18;;;;;;;1999.90;999.90;;;;;;;10.10;100.00;96216.69;5096051;28;20306;-59
2023/01/04 11:15:46;;;;;;;1999.90;999.90;;;;;;;10.06;100.00;96212.41;5095627;28;20202;-60
2023/01/04 11:18:12;;;;;;;1999.90;999.90;;;;;;;10.05;100.00;96214.34;5095660;28;20169;-60
2023/01/04 11:20:38;;;;;;;1999.90;999.90;;;;;;;10.14;100.00;96201.13;5095813;28;20226;-71
2023/01/04 11:23:11;;;;;;;1999.90;999.90;;;;;;;10.16;100.00;96205.44;5095794;28;20177;-62
2023/01/04 11:25:40;;;;;;;1999.90;999.90;;;;;;;10.27;100.00;96203.56;5095466;28;20191;-62
2023/01/04 11:28:18;;;;;;;1999.90;999.90;;;;;;;10.22;100.00;96203.91;5095626;28;20175;-61
2023/01/04 11:30:53;;;;;;;1999.90;999.90;;;;;;;10.08;100.00;96199.94;5095205;28;20220;-61
2023/01/04 11:33:21;;;;;;;1999.90;999.90;;;;;;;10.17;100.00;96182.44;5095425;28;20184;-61
2023/01/04 11:35:57;;;;;;;1999.90;999.90;;;;;;;10.17;100.00;96193.34;5094932;28;20253;-61
2023/01/04 11:38:26;;;;;;;1999.90;999.90;;;;;;;10.19;100.00;96186.34;5096059;28;20219;-61